Time;durP1;ratioP1;P1;durP2;ratioP2;P2;SDS_P1;SDS_P2;PMS_P1;PMS_P2;Temp;Humidity;BMP_temperature;BMP_pressure;BME280_temperature;BME280_humidity;BME280_pressure;Samples;Min_cycle;Max_cycle;Signal;HPM_P1;HPM_P2
2022/01/02 00:00:17;;;;;;;11.43;6.83;;;10.30;99.90;;;;;;5009257;28;20327;-84
2022/01/02 00:02:52;;;;;;;12.53;7.00;;;10.30;99.90;;;;;;4971718;28;20731;-84
2022/01/02 00:05:21;;;;;;;15.25;8.00;;;10.20;99.90;;;;;;5012379;28;20291;-84
2022/01/02 00:08:02;;;;;;;11.67;6.57;;;10.30;99.90;;;;;;4991166;28;20578;-84
2022/01/02 00:10:31;;;;;;;11.83;7.17;;;10.20;99.90;;;;;;4992541;28;20308;-84
2022/01/02 00:12:59;;;;;;;15.83;8.30;;;10.20;99.90;;;;;;4986977;28;20652;-84
2022/01/02 00:15:25;;;;;;;18.00;8.30;;;10.20;99.90;;;;;;4993635;28;20369;-83
2022/01/02 00:17:59;;;;;;;15.20;8.03;;;10.20;99.90;;;;;;4982731;28;20284;-84
2022/01/02 00:20:32;;;;;;;15.80;7.70;;;10.20;99.90;;;;;;4995619;28;20364;-84
2022/01/02 00:23:07;;;;;;;15.73;7.80;;;10.20;99.90;;;;;;4996416;28;20668;-84
2022/01/02 00:25:40;;;;;;;15.73;8.20;;;10.20;99.90;;;;;;4997502;28;20300;-83
2022/01/02 00:28:07;;;;;;;12.77;7.53;;;10.20;99.90;;;;;;4998823;28;20292;-83
2022/01/02 00:30:33;;;;;;;13.05;7.57;;;10.20;99.90;;;;;;4997401;28;20308;-84
2022/01/02 00:33:03;;;;;;;14.95;8.30;;;10.20;99.90;;;;;;4996674;28;20041;-83
2022/01/02 00:35:29;;;;;;;14.07;8.00;;;10.10;99.90;;;;;;4998601;28;20037;-83
2022/01/02 00:37:54;;;;;;;12.40;8.17;;;10.10;99.90;;;;;;4965869;28;20300;-83
2022/01/02 00:40:20;;;;;;;15.63;8.03;;;10.10;99.90;;;;;;4966460;28;20405;-83
2022/01/02 00:42:51;;;;;;;14.50;8.13;;;10.10;99.90;;;;;;4984923;28;20463;-83
2022/01/02 00:45:27;;;;;;;15.57;8.43;;;10.00;99.90;;;;;;5008367;28;20049;-84
2022/01/02 00:48:14;;;;;;;14.82;8.18;;;10.00;99.90;;;;;;5005059;28;20639;-83
2022/01/02 00:50:49;;;;;;;14.82;7.97;;;10.00;99.90;;;;;;5012617;28;20041;-83
2022/01/02 00:53:17;;;;;;;16.83;8.45;;;10.00;99.90;;;;;;5032608;28;20080;-83
2022/01/02 00:55:44;;;;;;;15.23;8.82;;;10.00;99.90;;;;;;4997434;28;20041;-83
2022/01/02 00:58:13;;;;;;;18.67;9.25;;;10.00;99.90;;;;;;4987934;28;20033;-83
2022/01/02 01:00:45;;;;;;;17.83;8.95;;;10.00;99.90;;;;;;5011145;28;20041;-83
2022/01/02 01:03:16;;;;;;;16.67;9.23;;;10.00;99.90;;;;;;5002428;28;20406;-83
2022/01/02 01:05:45;;;;;;;17.17;9.25;;;9.90;99.90;;;;;;4995015;28;20314;-83
2022/01/02 01:08:11;;;;;;;19.05;9.30;;;9.90;99.90;;;;;;4998596;28;20037;-84
2022/01/02 01:10:40;;;;;;;19.13;9.03;;;9.90;99.90;;;;;;4964511;28;20053;-84
2022/01/02 01:13:08;;;;;;;17.42;9.00;;;9.90;99.90;;;;;;4997988;28;20037;-83
2022/01/02 01:15:35;;;;;;;15.95;8.50;;;9.90;99.90;;;;;;5014129;28;20574;-83
2022/01/02 01:18:03;;;;;;;17.05;9.27;;;9.90;99.90;;;;;;5005446;28;20033;-83
2022/01/02 01:20:32;;;;;;;18.10;9.82;;;9.90;99.90;;;;;;4972045;28;20133;-83
2022/01/02 01:22:58;;;;;;;18.83;9.50;;;9.90;99.90;;;;;;5015184;28;20096;-83
2022/01/02 01:25:24;;;;;;;19.37;9.40;;;9.90;99.90;;;;;;4980993;28;20088;-83
2022/01/02 01:27:52;;;;;;;19.27;9.02;;;9.90;99.90;;;;;;4989309;28;20288;-83
2022/01/02 01:30:21;;;;;;;17.17;9.37;;;9.90;99.90;;;;;;4995125;28;20041;-83
2022/01/02 01:32:47;;;;;;;20.05;8.88;;;9.90;99.90;;;;;;4997547;28;20349;-83
2022/01/02 01:35:14;;;;;;;21.80;10.27;;;9.90;99.90;;;;;;4999769;28;20077;-83
2022/01/02 01:37:40;;;;;;;22.90;10.27;;;9.90;99.90;;;;;;5005935;28;20041;-82
2022/01/02 01:40:11;;;;;;;19.20;10.30;;;9.90;99.90;;;;;;5006651;28;20095;-82
2022/01/02 01:42:41;;;;;;;21.75;10.52;;;9.90;99.90;;;;;;5016523;28;20055;-83
2022/01/02 01:47:52;;;;;;;24.33;11.20;;;9.90;99.90;;;;;;5022655;28;20041;-83
2022/01/02 01:50:19;;;;;;;25.23;12.45;;;9.90;99.90;;;;;;5028930;28;20304;-84
2022/01/02 01:52:45;;;;;;;23.40;12.50;;;9.90;99.90;;;;;;5037263;28;20030;-84
2022/01/02 01:55:11;;;;;;;24.65;12.75;;;9.90;99.90;;;;;;5000254;28;20025;-84
2022/01/02 02:37:44;;;;;;;28.48;12.57;;;9.70;99.90;;;;;;5077094;24;20097;-81
2022/01/02 02:40:12;;;;;;;30.58;13.43;;;9.70;99.90;;;;;;4861423;29;20091;-81
2022/01/02 02:42:50;;;;;;;30.85;13.82;;;9.70;99.90;;;;;;4811872;29;20050;-81
2022/01/02 02:51:05;;;;;;;28.63;14.93;;;9.70;99.90;;;;;;4851359;29;20081;-82
2022/01/02 02:53:37;;;;;;;30.80;14.55;;;9.70;99.90;;;;;;4875786;29;20547;-81
2022/01/02 02:56:15;;;;;;;28.67;15.25;;;9.70;99.90;;;;;;4847222;29;20026;-82
2022/01/02 03:29:47;;;;;;;23.90;11.98;;;9.80;99.90;;;;;;5156465;23;20086;-82
2022/01/02 03:32:13;;;;;;;23.08;11.48;;;9.80;99.90;;;;;;4846371;29;20062;-82
2022/01/02 03:34:39;;;;;;;27.80;12.00;;;9.80;99.90;;;;;;4847311;29;20049;-81
2022/01/02 03:37:04;;;;;;;23.30;11.17;;;9.80;99.90;;;;;;4818679;29;20053;-81
2022/01/02 03:39:30;;;;;;;31.27;12.63;;;9.80;99.90;;;;;;4853060;29;20037;-81
2022/01/02 03:41:57;;;;;;;29.03;12.07;;;9.90;99.90;;;;;;4835155;29;20046;-81
2022/01/02 03:44:23;;;;;;;27.23;12.10;;;9.90;99.90;;;;;;4850353;29;20050;-81
2022/01/02 03:46:48;;;;;;;34.57;12.23;;;9.90;99.90;;;;;;4828123;29;20141;-83
2022/01/02 03:49:14;;;;;;;30.53;12.53;;;9.90;99.90;;;;;;4851777;29;20053;-81
2022/01/02 03:51:40;;;;;;;36.50;12.37;;;9.90;99.90;;;;;;4839653;29;20049;-81
2022/01/02 03:54:05;;;;;;;31.93;12.50;;;9.90;99.90;;;;;;4838648;29;20053;-81
2022/01/02 03:56:31;;;;;;;36.20;13.13;;;9.90;99.90;;;;;;4812694;29;20034;-81
2022/01/02 03:58:57;;;;;;;30.03;12.47;;;9.90;99.90;;;;;;4827131;29;20033;-81
2022/01/02 04:01:22;;;;;;;31.43;12.93;;;9.90;99.90;;;;;;4840162;29;20049;-81
2022/01/02 04:03:54;;;;;;;29.23;12.30;;;9.90;99.90;;;;;;4854039;29;20081;-81
2022/01/02 04:06:20;;;;;;;26.95;11.82;;;9.90;99.90;;;;;;4858023;29;20038;-81
2022/01/02 04:08:45;;;;;;;34.23;12.53;;;9.90;99.90;;;;;;4844985;29;20074;-81
2022/01/02 04:11:11;;;;;;;30.90;12.63;;;9.90;99.90;;;;;;4845601;29;20026;-81
2022/01/02 04:13:37;;;;;;;30.27;12.87;;;9.90;99.90;;;;;;4842467;29;20034;-81
2022/01/02 04:16:02;;;;;;;32.03;12.03;;;9.90;99.90;;;;;;4819191;29;20038;-81
2022/01/02 04:18:28;;;;;;;35.10;14.30;;;9.90;99.90;;;;;;4856665;29;20034;-81
2022/01/02 04:20:54;;;;;;;33.63;13.03;;;9.90;99.90;;;;;;4856067;29;20053;-80
2022/01/02 05:06:15;;;;;;;34.97;12.18;;;10.00;99.90;;;;;;4852661;29;20069;-79
2022/01/02 05:08:44;;;;;;;23.87;11.33;;;9.90;99.90;;;;;;4851882;29;20038;-79
2022/01/02 05:11:10;;;;;;;27.55;11.23;;;10.00;99.90;;;;;;4820525;29;20044;-79
2022/01/02 05:13:36;;;;;;;25.75;10.60;;;10.00;99.90;;;;;;4834429;29;20046;-79
2022/01/02 05:16:02;;;;;;;29.63;11.00;;;10.00;99.90;;;;;;4842450;29;20041;-80
2022/01/02 05:18:28;;;;;;;25.23;10.38;;;10.00;99.90;;;;;;4834016;29;20046;-80
2022/01/02 05:20:54;;;;;;;27.67;9.90;;;10.00;99.90;;;;;;4845036;29;20110;-79
2022/01/02 07:13:52;;;;;;;12.50;4.00;;;10.70;99.90;;;;;;509096;27;20331;-78
2022/01/02 07:16:18;;;;;;;18.00;4.17;;;10.70;99.90;;;;;;4834431;29;20602;-79
2022/01/02 07:18:44;;;;;;;16.70;4.90;;;10.80;99.90;;;;;;4846974;29;20329;-78
2022/01/02 07:21:18;;;;;;;8.67;3.67;;;10.80;99.90;;;;;;4849717;29;20487;-77
2022/01/02 07:23:45;;;;;;;11.63;4.20;;;10.80;99.90;;;;;;4828904;29;20049;-78
2022/01/02 07:26:11;;;;;;;14.30;4.40;;;10.70;99.90;;;;;;4842010;29;20362;-78
2022/01/02 07:28:36;;;;;;;9.30;4.17;;;10.70;99.90;;;;;;4866536;29;20414;-78
2022/01/02 07:31:02;;;;;;;13.53;4.57;;;10.70;99.90;;;;;;4834579;29;20060;-78
2022/01/02 07:33:29;;;;;;;9.60;3.93;;;10.70;99.90;;;;;;4835131;29;20038;-78
2022/01/02 07:35:55;;;;;;;12.67;4.30;;;10.70;99.90;;;;;;4844416;29;20129;-79
2022/01/02 07:38:20;;;;;;;11.93;4.90;;;10.60;99.90;;;;;;4837045;29;20295;-79
2022/01/02 07:40:47;;;;;;;11.20;4.57;;;10.70;99.90;;;;;;4834915;29;20056;-78
2022/01/02 07:43:13;;;;;;;12.93;4.73;;;10.70;99.90;;;;;;4835716;29;20050;-78
2022/01/02 07:45:41;;;;;;;11.73;4.83;;;10.60;99.90;;;;;;4849720;29;20937;-78
2022/01/02 07:48:08;;;;;;;14.23;5.60;;;10.60;99.90;;;;;;4821306;29;20071;-78
2022/01/02 07:50:33;;;;;;;15.40;5.60;;;10.50;99.90;;;;;;4842699;29;20340;-78
2022/01/02 07:52:59;;;;;;;14.60;5.97;;;10.50;99.90;;;;;;4829496;29;20691;-78
2022/01/02 07:55:25;;;;;;;13.33;6.03;;;10.50;99.90;;;;;;4847570;29;20046;-78
2022/01/02 07:57:50;;;;;;;13.77;6.27;;;10.50;99.90;;;;;;4837004;29;20042;-78
2022/01/02 08:00:22;;;;;;;15.37;6.77;;;10.40;99.90;;;;;;4834335;29;20042;-77
2022/01/02 08:02:47;;;;;;;23.43;7.37;;;10.40;99.90;;;;;;4840995;29;20046;-79
2022/01/02 08:05:14;;;;;;;21.17;7.43;;;10.40;99.90;;;;;;4837895;29;20299;-78
2022/01/02 08:07:40;;;;;;;15.53;6.73;;;10.40;99.90;;;;;;4832868;29;20515;-77
2022/01/02 08:10:06;;;;;;;17.83;7.70;;;10.40;99.90;;;;;;4850185;29;20319;-77
2022/01/02 08:12:32;;;;;;;18.47;8.00;;;10.40;99.90;;;;;;4833849;29;20807;-77
2022/01/02 08:14:58;;;;;;;18.10;8.97;;;10.40;99.90;;;;;;4830462;29;20539;-77
2022/01/02 08:17:30;;;;;;;15.43;8.77;;;10.40;99.90;;;;;;4832063;29;20069;-77
2022/01/02 08:19:55;;;;;;;14.80;8.05;;;10.40;99.90;;;;;;4842900;29;20050;-77
2022/01/02 08:22:27;;;;;;;16.33;7.80;;;10.40;99.90;;;;;;4842067;29;20416;-76
2022/01/02 08:24:53;;;;;;;10.87;6.30;;;10.40;99.90;;;;;;4827592;29;20112;-77
2022/01/02 08:27:19;;;;;;;12.30;6.83;;;10.40;99.90;;;;;;4841680;29;20287;-77
2022/01/02 08:29:45;;;;;;;13.60;6.73;;;10.40;99.90;;;;;;4826111;29;20087;-76
2022/01/02 08:32:10;;;;;;;13.70;6.57;;;10.30;99.90;;;;;;4830875;29;20038;-76
2022/01/02 08:34:36;;;;;;;11.37;7.90;;;10.40;99.90;;;;;;4845427;29;20046;-77
2022/01/02 08:37:02;;;;;;;16.00;7.90;;;10.30;99.90;;;;;;4845118;29;20067;-76
2022/01/02 08:39:28;;;;;;;13.50;8.30;;;10.20;99.90;;;;;;4831993;29;20048;-76
2022/01/02 08:42:00;;;;;;;14.23;9.00;;;10.30;99.90;;;;;;4843477;29;20114;-76
2022/01/02 08:44:25;;;;;;;14.47;9.13;;;10.30;99.90;;;;;;4819111;29;20499;-76
2022/01/02 08:46:53;;;;;;;16.87;10.83;;;10.20;99.90;;;;;;4847231;29;20302;-76
2022/01/02 08:49:18;;;;;;;18.35;10.77;;;10.20;99.90;;;;;;4825643;29;20042;-76
2022/01/02 08:51:45;;;;;;;16.40;10.67;;;10.10;99.90;;;;;;4859758;29;20045;-76
2022/01/02 08:54:11;;;;;;;19.03;11.37;;;10.10;99.90;;;;;;4848496;29;20052;-76
2022/01/02 08:56:37;;;;;;;23.60;12.63;;;10.10;99.90;;;;;;4847021;29;20299;-77
2022/01/02 08:59:03;;;;;;;22.10;13.03;;;10.10;99.90;;;;;;4849880;29;20113;-77
2022/01/02 09:01:29;;;;;;;25.07;13.33;;;10.10;99.90;;;;;;4838539;29;20327;-77
2022/01/02 09:03:54;;;;;;;21.87;11.97;;;10.10;99.90;;;;;;4828299;29;20050;-77
2022/01/02 09:06:20;;;;;;;25.50;13.00;;;10.10;99.90;;;;;;4835088;29;20050;-77
2022/01/02 09:08:46;;;;;;;18.73;11.40;;;10.10;99.90;;;;;;4822291;29;20118;-76
2022/01/02 09:11:11;;;;;;;20.50;10.73;;;10.00;99.90;;;;;;4823734;29;20046;-77
2022/01/02 09:13:37;;;;;;;15.63;10.50;;;10.00;99.90;;;;;;4836606;29;20034;-77
2022/01/02 09:16:23;;;;;;;18.97;11.07;;;10.00;99.90;;;;;;4832136;29;20061;-77
2022/01/02 09:18:50;;;;;;;22.17;12.80;;;10.00;99.90;;;;;;4847413;29;20042;-76
2022/01/02 09:21:16;;;;;;;21.13;12.27;;;10.00;99.90;;;;;;4837132;29;20303;-76
2022/01/02 09:23:48;;;;;;;26.20;12.87;;;10.10;99.90;;;;;;4848772;29;20328;-76
2022/01/02 09:26:14;;;;;;;23.17;12.23;;;10.10;99.90;;;;;;4850479;29;20808;-77
2022/01/02 09:28:40;;;;;;;20.80;11.87;;;10.10;99.90;;;;;;4828313;29;20302;-77
2022/01/02 09:31:12;;;;;;;23.30;12.88;;;10.10;99.90;;;;;;4827004;29;20318;-76
2022/01/02 09:33:39;;;;;;;24.40;12.30;;;10.10;99.90;;;;;;4828828;29;20037;-76
2022/01/02 09:36:04;;;;;;;23.23;11.90;;;10.10;99.90;;;;;;4851052;29;20045;-77
2022/01/02 09:38:31;;;;;;;25.93;11.57;;;10.10;99.90;;;;;;4800843;29;20660;-77
2022/01/02 09:40:59;;;;;;;22.53;10.83;;;10.10;99.90;;;;;;4849032;29;20041;-76
2022/01/02 09:43:26;;;;;;;19.10;10.30;;;10.20;99.90;;;;;;4834560;29;20331;-76
2022/01/02 09:45:53;;;;;;;20.30;9.90;;;10.10;99.90;;;;;;4831189;29;20298;-78
2022/01/02 09:48:21;;;;;;;21.27;10.60;;;10.10;99.90;;;;;;4841880;29;20796;-77
2022/01/02 09:50:47;;;;;;;19.35;10.25;;;10.10;99.90;;;;;;4807261;29;20077;-76
2022/01/02 09:53:13;;;;;;;19.63;10.10;;;10.10;99.90;;;;;;4827460;29;20057;-77
2022/01/02 09:55:45;;;;;;;20.20;10.63;;;10.00;99.90;;;;;;4833786;29;20345;-77
2022/01/02 09:58:12;;;;;;;20.80;10.10;;;10.00;99.90;;;;;;4839013;29;20311;-77
2022/01/02 10:00:43;;;;;;;17.15;9.90;;;10.00;99.90;;;;;;4820554;29;20299;-77
2022/01/02 10:03:11;;;;;;;18.85;10.07;;;10.10;99.90;;;;;;4813719;29;20076;-77
2022/01/02 10:05:56;;;;;;;16.90;8.23;;;10.10;99.90;;;;;;4824674;29;20667;-77
2022/01/02 10:08:24;;;;;;;15.32;8.27;;;10.00;99.90;;;;;;4836190;29;20052;-77
2022/01/02 10:10:58;;;;;;;24.47;7.73;;;10.00;99.90;;;;;;4827595;29;20539;-77
2022/01/02 10:13:44;;;;;;;13.50;7.85;;;10.00;99.90;;;;;;4843803;29;20302;-77
2022/01/02 10:16:26;;;;;;;21.43;8.50;;;10.10;99.90;;;;;;4824850;29;20399;-77
2022/01/02 10:18:53;;;;;;;20.97;8.33;;;10.10;99.90;;;;;;4838123;29;20330;-77
2022/01/02 10:21:36;;;;;;;17.03;7.57;;;10.10;99.90;;;;;;4834518;29;20315;-77
2022/01/02 10:24:13;;;;;;;16.67;7.30;;;10.00;99.90;;;;;;4836390;29;20311;-77
2022/01/02 10:26:41;;;;;;;17.30;7.00;;;10.00;99.90;;;;;;4845929;29;20306;-77
2022/01/02 10:29:11;;;;;;;22.30;6.97;;;10.00;99.90;;;;;;4836559;29;20042;-77
2022/01/02 10:31:37;;;;;;;24.03;7.30;;;10.10;99.90;;;;;;4849054;29;20262;-77
2022/01/02 10:34:03;;;;;;;23.07;7.67;;;10.10;99.90;;;;;;4851714;29;20295;-77
2022/01/02 10:36:30;;;;;;;25.03;7.13;;;10.30;99.90;;;;;;4828941;29;20114;-77
2022/01/02 10:39:18;;;;;;;18.05;6.72;;;10.30;99.90;;;;;;4832036;29;20045;-78
2022/01/02 10:41:51;;;;;;;27.10;6.80;;;10.40;99.90;;;;;;4834653;29;20057;-78
2022/01/02 10:44:21;;;;;;;24.08;6.20;;;10.50;99.90;;;;;;4831620;29;20295;-77
2022/01/02 10:47:11;;;;;;;22.08;6.03;;;10.60;99.90;;;;;;4855276;29;20142;-77
2022/01/02 10:49:55;;;;;;;20.87;6.03;;;10.60;99.90;;;;;;4848098;29;20069;-77
2022/01/02 10:52:26;;;;;;;20.50;6.43;;;10.60;99.90;;;;;;4840513;29;20298;-78
2022/01/02 10:54:53;;;;;;;18.60;6.32;;;10.60;99.90;;;;;;4820446;29;20323;-78
2022/01/02 10:57:18;;;;;;;22.33;6.53;;;10.50;99.90;;;;;;4839039;29;20440;-78
2022/01/02 10:59:45;;;;;;;17.00;5.80;;;10.60;99.90;;;;;;4840191;29;20439;-77
2022/01/02 11:02:15;;;;;;;24.10;6.90;;;10.60;99.90;;;;;;4838894;29;20502;-78
2022/01/02 11:04:52;;;;;;;14.77;6.20;;;10.60;99.90;;;;;;4852213;29;20791;-78
2022/01/02 11:07:26;;;;;;;20.50;6.30;;;10.70;99.90;;;;;;4849973;29;20328;-79
2022/01/02 11:09:55;;;;;;;21.77;6.20;;;10.70;99.90;;;;;;4830262;29;20306;-79
2022/01/02 11:12:23;;;;;;;18.17;6.50;;;10.70;99.90;;;;;;4830502;29;20332;-79
2022/01/02 11:14:50;;;;;;;21.20;5.77;;;10.60;99.90;;;;;;4842875;29;20302;-78
2022/01/02 11:17:16;;;;;;;22.23;5.80;;;10.60;99.90;;;;;;4838072;29;20279;-79
2022/01/02 11:19:42;;;;;;;19.47;5.47;;;10.60;99.90;;;;;;4833249;29;20302;-79
2022/01/02 11:22:20;;;;;;;23.77;6.20;;;10.60;99.90;;;;;;4823562;29;20291;-79
2022/01/02 11:25:00;;;;;;;20.70;5.97;;;10.60;99.90;;;;;;4831161;29;20156;-80
2022/01/02 11:27:39;;;;;;;23.95;5.43;;;10.60;99.90;;;;;;4846988;29;20370;-79
2022/01/02 11:30:37;;;;;;;25.73;5.80;;;10.60;99.90;;;;;;4856068;29;20053;-78
2022/01/02 11:33:25;;;;;;;21.60;4.83;;;10.60;99.90;;;;;;5102116;27;1944546;-79
2022/01/02 11:36:26;;;;;;;18.07;4.70;;;10.60;99.90;;;;;;5127247;27;20044;-79
2022/01/02 11:39:18;;;;;;;26.00;4.77;;;10.70;99.90;;;;;;5131301;27;20292;-78
2022/01/02 11:41:52;;;;;;;19.27;4.43;;;10.70;99.90;;;;;;5112674;27;20686;-79
2022/01/02 11:44:41;;;;;;;18.23;4.78;;;10.70;99.90;;;;;;5115257;27;20277;-79
2022/01/02 11:47:07;;;;;;;23.57;4.57;;;10.70;99.90;;;;;;5111432;27;20047;-79
2022/01/02 11:49:43;;;;;;;17.33;4.07;;;10.70;99.90;;;;;;5081680;27;20285;-80
2022/01/02 11:52:22;;;;;;;20.52;6.47;;;10.70;99.90;;;;;;5095049;27;20304;-78
2022/01/02 11:54:51;;;;;;;15.52;5.00;;;10.70;99.90;;;;;;5094941;27;20043;-79
2022/01/02 11:57:20;;;;;;;22.10;6.63;;;10.70;99.90;;;;;;5109985;28;20035;-79
2022/01/02 11:59:48;;;;;;;22.77;4.80;;;10.80;99.90;;;;;;5121332;27;20031;-81
2022/01/02 12:02:37;;;;;;;18.40;4.30;;;10.80;99.90;;;;;;5128830;27;20303;-82
2022/01/02 12:05:12;;;;;;;22.50;5.07;;;10.90;99.90;;;;;;5124771;27;20096;-81
2022/01/02 12:07:41;;;;;;;23.33;6.50;;;10.80;99.90;;;;;;5120484;27;20379;-81
2022/01/02 12:10:32;;;;;;;22.87;3.97;;;10.80;99.90;;;;;;5125269;27;20331;-81
2022/01/02 12:13:09;;;;;;;22.45;3.97;;;10.70;99.90;;;;;;5117972;27;20360;-80
2022/01/02 12:16:01;;;;;;;20.73;4.40;;;10.70;99.90;;;;;;5125437;27;20023;-82
2022/01/02 12:18:31;;;;;;;24.77;4.38;;;10.70;99.90;;;;;;5130770;27;20281;-81
2022/01/02 12:20:57;;;;;;;17.67;4.03;;;10.70;99.90;;;;;;5111275;27;20069;-81
2022/01/02 12:23:42;;;;;;;18.07;3.87;;;10.70;99.90;;;;;;5119942;28;20605;-81
2022/01/02 12:26:28;;;;;;;16.35;3.65;;;10.70;99.90;;;;;;5115271;27;20066;-82
2022/01/02 12:29:13;;;;;;;;;;;10.70;99.90;;;;;;5117872;28;20056;-82
2022/01/02 12:31:44;;;;;;;19.27;3.57;;;10.60;99.90;;;;;;5110266;27;19930;-83
2022/01/02 12:34:17;;;;;;;19.57;4.00;;;10.70;99.90;;;;;;5120139;27;20281;-82
2022/01/02 12:36:48;;;;;;;25.40;3.80;;;10.70;99.90;;;;;;5125559;27;20285;-81
2022/01/02 12:39:49;;;;;;;20.83;4.13;;;10.60;99.90;;;;;;5114138;27;20280;-81
2022/01/02 12:42:26;;;;;;;19.67;3.77;;;10.70;99.90;;;;;;5092855;27;20100;-82
2022/01/02 12:44:52;;;;;;;16.90;3.10;;;10.70;99.90;;;;;;5104773;27;20277;-82
2022/01/02 12:47:20;;;;;;;17.77;2.80;;;10.70;99.90;;;;;;5095624;28;20327;-82
2022/01/02 12:49:56;;;;;;;18.90;2.90;;;10.70;99.90;;;;;;5116825;27;20129;-82
2022/01/02 12:52:23;;;;;;;20.87;3.63;;;10.70;99.90;;;;;;5095140;28;20323;-82
2022/01/02 12:54:50;;;;;;;20.23;6.00;;;10.60;99.90;;;;;;5066174;28;20307;-82
2022/01/02 12:57:18;;;;;;;19.60;2.93;;;10.60;99.90;;;;;;5093425;27;20293;-81
2022/01/02 12:59:49;;;;;;;20.87;4.03;;;10.50;99.90;;;;;;5130743;28;20318;-82
2022/01/02 13:02:21;;;;;;;16.40;4.33;;;10.50;99.90;;;;;;5116901;28;20344;-82
2022/01/02 13:04:55;;;;;;;20.20;3.38;;;10.50;99.90;;;;;;5117571;28;20287;-83
2022/01/02 13:07:41;;;;;;;19.70;3.07;;;10.60;99.90;;;;;;5105487;27;20035;-82
2022/01/02 13:10:17;;;;;;;20.63;3.55;;;10.60;99.90;;;;;;5093470;27;20293;-82
2022/01/02 13:12:45;;;;;;;16.37;2.80;;;10.60;99.90;;;;;;5110437;28;20483;-82
2022/01/02 13:15:16;;;;;;;20.90;2.80;;;10.50;99.90;;;;;;5090508;28;20298;-82
2022/01/02 13:18:08;;;;;;;18.03;3.07;;;10.50;99.90;;;;;;5095384;28;20285;-83
2022/01/02 13:20:40;;;;;;;23.03;3.33;;;10.60;99.90;;;;;;5098481;27;20317;-83
2022/01/02 13:23:14;;;;;;;17.77;2.57;;;10.70;99.90;;;;;;5087684;28;20297;-83
2022/01/02 13:25:49;;;;;;;20.40;2.57;;;10.70;99.90;;;;;;5108801;28;20311;-83
2022/01/02 13:28:16;;;;;;;15.43;2.63;;;10.60;99.90;;;;;;5109938;27;20287;-84
2022/01/02 13:30:53;;;;;;;16.83;2.93;;;10.50;99.90;;;;;;5106507;27;20280;-84
2022/01/02 13:33:31;;;;;;;13.90;2.70;;;10.40;99.90;;;;;;5088231;28;20291;-85
2022/01/02 13:36:08;;;;;;;20.40;2.37;;;10.30;99.90;;;;;;5076243;28;20279;-84
2022/01/02 13:39:00;;;;;;;14.43;2.10;;;10.20;99.90;;;;;;5084650;28;20294;-84
2022/01/02 13:41:28;;;;;;;10.73;1.60;;;10.20;99.90;;;;;;5075710;28;20285;-84
2022/01/02 13:43:55;;;;;;;15.30;2.40;;;10.10;99.90;;;;;;5063189;28;20315;-84
2022/01/02 13:46:21;;;;;;;11.88;1.73;;;10.00;99.90;;;;;;5078256;28;20259;-84
2022/01/02 13:48:48;;;;;;;15.23;2.13;;;10.00;99.90;;;;;;5060589;28;20080;-85
2022/01/02 13:51:20;;;;;;;19.63;2.47;;;9.90;99.90;;;;;;5057780;28;20303;-86
2022/01/02 13:53:48;;;;;;;12.63;1.57;;;9.90;99.90;;;;;;5070237;28;20283;-86
2022/01/02 13:56:17;;;;;;;10.20;2.20;;;9.80;99.90;;;;;;5077550;28;20286;-86
2022/01/02 13:58:58;;;;;;;12.67;1.90;;;9.80;99.90;;;;;;5081942;28;20278;-85
2022/01/02 14:01:30;;;;;;;15.03;2.17;;;9.70;99.90;;;;;;5085500;28;20309;-85
2022/01/02 14:04:08;;;;;;;18.00;2.30;;;9.60;99.90;;;;;;5092506;28;20274;-87
2022/01/02 14:06:38;;;;;;;16.05;2.08;;;9.60;99.90;;;;;;5087512;28;20279;-86
2022/01/02 14:09:09;;;;;;;15.63;1.92;;;9.50;99.90;;;;;;5080657;28;20036;-84
2022/01/02 14:11:37;;;;;;;13.50;2.00;;;9.50;99.90;;;;;;5107167;28;20043;-84
2022/01/02 14:17:16;;;;;;;18.55;2.50;;;9.40;99.90;;;;;;5090575;28;20052;-83
2022/01/02 14:19:48;;;;;;;19.85;2.17;;;9.40;99.90;;;;;;5080307;28;20067;-83
2022/01/02 14:22:17;;;;;;;20.90;2.80;;;9.30;99.90;;;;;;5068583;28;20044;-83
2022/01/02 14:24:43;;;;;;;19.60;2.38;;;9.30;99.90;;;;;;5087120;28;20036;-84
2022/01/02 14:27:14;;;;;;;21.25;2.10;;;9.30;99.90;;;;;;5079831;28;20039;-84
2022/01/02 14:29:40;;;;;;;16.25;2.33;;;9.20;99.90;;;;;;5074994;28;20068;-83
2022/01/02 14:32:07;;;;;;;17.02;2.47;;;9.20;99.90;;;;;;5066843;27;20040;-84
2022/01/02 14:34:34;;;;;;;16.90;2.35;;;9.20;99.90;;;;;;5076297;28;20111;-84
2022/01/02 14:37:00;;;;;;;21.85;2.88;;;9.20;99.90;;;;;;5089590;28;20031;-84
2022/01/02 14:39:26;;;;;;;15.57;2.30;;;9.20;99.90;;;;;;5089521;28;20130;-84
2022/01/02 14:41:52;;;;;;;21.70;2.47;;;9.20;99.90;;;;;;5071779;28;20039;-83
2022/01/02 14:44:18;;;;;;;17.60;3.07;;;9.20;99.90;;;;;;5095507;27;20046;-83
2022/01/02 14:46:48;;;;;;;18.57;2.43;;;9.20;99.90;;;;;;5082450;28;20050;-83
2022/01/02 14:49:15;;;;;;;15.20;2.20;;;9.20;99.90;;;;;;5101718;28;20075;-83
2022/01/02 14:51:41;;;;;;;14.48;2.33;;;9.20;99.90;;;;;;5073145;28;20035;-84
2022/01/02 14:54:08;;;;;;;15.77;3.40;;;9.10;99.90;;;;;;5111276;28;20070;-83
2022/01/02 14:56:34;;;;;;;15.15;2.35;;;9.10;99.90;;;;;;5122034;28;20099;-83
2022/01/02 14:59:00;;;;;;;15.37;2.00;;;9.10;99.90;;;;;;5117438;28;20031;-84
2022/01/02 15:01:26;;;;;;;15.55;1.98;;;9.00;99.90;;;;;;5082743;27;20475;-84
2022/01/02 15:03:53;;;;;;;14.90;2.30;;;9.00;99.90;;;;;;5106162;27;20060;-84
2022/01/02 15:06:18;;;;;;;14.43;2.00;;;9.10;99.90;;;;;;5095106;27;20054;-84
2022/01/02 15:08:44;;;;;;;18.80;2.63;;;9.10;99.90;;;;;;5075211;28;20039;-83
2022/01/02 15:11:13;;;;;;;14.55;2.20;;;9.10;99.90;;;;;;5105433;27;20031;-83
2022/01/02 15:13:39;;;;;;;14.87;1.90;;;9.20;99.90;;;;;;5079265;28;20084;-83
2022/01/02 15:16:05;;;;;;;16.67;2.13;;;9.20;99.90;;;;;;5069014;27;20284;-83
2022/01/02 15:18:32;;;;;;;14.00;2.05;;;9.20;99.90;;;;;;5075406;28;20475;-83
2022/01/02 15:20:57;;;;;;;16.15;2.03;;;9.10;99.90;;;;;;5095267;28;20604;-84
2022/01/02 15:23:23;;;;;;;14.90;2.90;;;9.10;99.90;;;;;;5094622;27;20556;-83
2022/01/02 15:25:49;;;;;;;15.13;2.53;;;9.10;99.90;;;;;;5093764;28;20476;-83
2022/01/02 15:28:15;;;;;;;10.17;2.27;;;9.00;99.90;;;;;;5093029;28;20035;-84
2022/01/02 15:30:42;;;;;;;9.03;2.10;;;9.00;99.90;;;;;;5079903;28;20289;-83
2022/01/02 15:33:08;;;;;;;13.52;2.08;;;9.00;99.90;;;;;;5086269;28;20385;-83
2022/01/02 15:35:34;;;;;;;13.25;2.15;;;9.00;99.90;;;;;;5097154;28;20044;-83
2022/01/02 15:38:00;;;;;;;17.93;2.37;;;8.90;99.90;;;;;;5094398;28;20089;-83
2022/01/02 15:40:25;;;;;;;18.63;2.90;;;8.90;99.90;;;;;;5084125;28;20036;-84
2022/01/02 15:42:51;;;;;;;20.33;2.27;;;8.90;99.90;;;;;;5085039;28;20103;-84
2022/01/02 15:45:17;;;;;;;16.73;2.37;;;8.90;99.90;;;;;;5106887;28;20099;-83
2022/01/02 15:47:48;;;;;;;18.10;2.65;;;8.80;99.90;;;;;;5074862;28;20039;-83
2022/01/02 15:50:15;;;;;;;17.13;2.53;;;8.80;99.90;;;;;;5094306;28;20098;-83
2022/01/02 15:52:41;;;;;;;14.57;2.45;;;8.80;99.90;;;;;;5099608;28;20067;-83
2022/01/02 15:55:07;;;;;;;11.10;1.75;;;8.80;99.90;;;;;;5101958;28;20050;-83
2022/01/02 15:57:33;;;;;;;19.35;2.40;;;8.80;99.90;;;;;;5107146;28;20042;-83
2022/01/02 16:00:05;;;;;;;20.33;3.20;;;8.80;99.90;;;;;;5064333;28;20031;-83
2022/01/02 16:02:31;;;;;;;15.40;2.35;;;8.80;99.90;;;;;;5097649;28;20045;-84
2022/01/02 16:04:57;;;;;;;17.80;2.30;;;8.80;99.90;;;;;;5078962;28;20045;-83
2022/01/02 16:07:22;;;;;;;19.37;2.13;;;8.80;99.90;;;;;;5077979;28;20046;-83
2022/01/02 16:09:48;;;;;;;9.20;1.37;;;8.80;99.90;;;;;;5061534;28;20074;-84
2022/01/02 16:12:14;;;;;;;13.23;2.17;;;8.80;99.90;;;;;;5058802;28;20512;-83
2022/01/02 16:14:39;;;;;;;14.47;1.93;;;8.80;99.90;;;;;;5049814;28;20047;-84
2022/01/02 16:17:05;;;;;;;12.77;2.07;;;8.70;99.90;;;;;;5078140;28;20028;-84
2022/01/02 16:19:31;;;;;;;12.10;1.87;;;8.70;99.90;;;;;;5063131;28;20404;-85
2022/01/02 16:21:58;;;;;;;16.77;2.07;;;8.70;99.90;;;;;;5083603;27;20046;-83
2022/01/02 16:24:25;;;;;;;14.05;1.88;;;8.70;99.90;;;;;;5071066;27;20043;-84
2022/01/02 16:26:52;;;;;;;15.23;2.13;;;8.70;99.90;;;;;;5080406;28;20045;-84
2022/01/02 16:29:25;;;;;;;11.27;1.77;;;8.60;99.90;;;;;;5066237;28;20081;-84
2022/01/02 16:31:51;;;;;;;16.30;2.13;;;8.70;99.90;;;;;;5090888;27;20074;-84
2022/01/02 16:34:17;;;;;;;13.68;2.33;;;8.60;99.90;;;;;;5068545;28;20059;-84
2022/01/02 16:36:43;;;;;;;8.17;1.57;;;8.60;99.90;;;;;;5070795;27;20907;-84
2022/01/02 16:39:09;;;;;;;12.57;2.10;;;8.60;99.90;;;;;;5073315;28;20036;-84
2022/01/02 16:41:34;;;;;;;10.20;1.47;;;8.60;99.90;;;;;;5060050;28;20057;-84
2022/01/02 16:44:02;;;;;;;12.43;2.10;;;8.60;99.90;;;;;;5070242;28;20048;-84
2022/01/02 16:46:28;;;;;;;13.30;1.83;;;8.50;99.90;;;;;;5076089;28;20039;-84